createdAt,value
2022-08-11T00:01:32.057Z,13.04
2022-08-11T00:06:43.901Z,13.02
2022-08-11T00:11:52.089Z,13.02
2022-08-11T00:17:01.303Z,13.01
2022-08-11T00:22:09.094Z,12.92
2022-08-11T00:27:15.175Z,12.88
2022-08-11T00:32:22.069Z,12.88
2022-08-11T00:37:28.871Z,12.88
2022-08-11T00:42:48.331Z,12.85
2022-08-11T00:48:02.937Z,12.76
2022-08-11T00:53:26.206Z,12.71
2022-08-11T00:59:26.336Z,12.61
2022-08-11T01:05:24.627Z,12.50
2022-08-11T01:10:54.684Z,12.45
2022-08-11T01:16:33.000Z,12.43
2022-08-11T01:22:15.948Z,12.35
2022-08-11T01:27:49.721Z,12.26
2022-08-11T01:33:50.070Z,12.23
2022-08-11T01:39:24.849Z,12.19
2022-08-11T01:45:03.905Z,12.11
2022-08-11T01:50:18.828Z,12.00
2022-08-11T01:55:32.357Z,11.95
2022-08-11T02:00:52.060Z,11.91
2022-08-11T02:06:25.171Z,11.86
2022-08-11T02:11:35.532Z,11.80
2022-08-11T02:17:07.421Z,11.79
2022-08-11T02:22:48.102Z,11.77
2022-08-11T02:28:01.437Z,11.73
2022-08-11T02:33:25.033Z,11.67
2022-08-11T02:38:43.442Z,11.62
2022-08-11T02:44:04.541Z,11.64
2022-08-11T02:49:37.158Z,11.62
2022-08-11T02:54:51.118Z,11.70
2022-08-11T03:00:07.554Z,11.70
2022-08-11T03:05:26.510Z,11.64
2022-08-11T03:10:42.437Z,11.57
2022-08-11T03:16:17.242Z,11.51
2022-08-11T03:21:52.371Z,11.48
2022-08-11T03:27:07.609Z,11.50
2022-08-11T03:32:29.198Z,11.53
2022-08-11T03:37:53.282Z,11.52
2022-08-11T03:43:07.874Z,11.54
2022-08-11T03:48:25.247Z,11.60
2022-08-11T03:53:56.026Z,11.72
2022-08-11T03:59:24.892Z,11.85
2022-08-11T04:05:01.992Z,11.98
2022-08-11T04:10:33.289Z,12.22
2022-08-11T04:16:12.532Z,12.53
2022-08-11T04:21:41.826Z,12.86
2022-08-11T04:27:37.075Z,13.15
2022-08-11T04:33:29.942Z,13.46
2022-08-11T04:39:09.170Z,13.93
2022-08-11T04:44:54.655Z,14.59
2022-08-11T04:50:39.936Z,16.85
2022-08-11T04:56:21.502Z,21.27
2022-08-11T05:01:42.714Z,24.65
2022-08-11T05:07:30.385Z,27.16
2022-08-11T05:12:47.188Z,29.49
2022-08-11T05:18:21.569Z,31.17
2022-08-11T05:23:47.781Z,32.68
2022-08-11T05:29:20.173Z,33.89
2022-08-11T05:34:51.716Z,34.93
2022-08-11T05:40:26.119Z,35.83
2022-08-11T05:46:02.444Z,36.76
2022-08-11T05:51:29.954Z,37.34
2022-08-11T05:56:47.688Z,37.91
2022-08-11T06:01:53.934Z,38.82
2022-08-11T06:07:04.022Z,39.66
2022-08-11T06:12:20.392Z,39.96
2022-08-11T06:17:39.181Z,40.49
2022-08-11T06:22:52.459Z,41.08
2022-08-11T06:27:59.900Z,41.39
2022-08-11T06:33:09.240Z,41.34
2022-08-11T06:38:23.686Z,41.45
2022-08-11T06:43:38.899Z,41.54
2022-08-11T06:48:46.432Z,42.10
2022-08-11T06:54:04.166Z,42.45
2022-08-11T06:59:31.317Z,42.91
2022-08-11T07:04:53.932Z,42.77
2022-08-11T07:10:42.417Z,42.23
2022-08-11T07:16:10.469Z,42.36
2022-08-11T07:22:02.832Z,42.47
2022-08-11T07:27:35.603Z,43.07
2022-08-11T07:32:50.346Z,43.17
2022-08-11T07:38:02.570Z,43.17
2022-08-11T07:43:12.010Z,43.52
2022-08-11T07:48:37.670Z,43.61
2022-08-11T07:53:58.435Z,43.64
2022-08-11T08:00:03.807Z,43.30
2022-08-11T08:05:16.935Z,42.61
2022-08-11T08:10:41.972Z,42.07
2022-08-11T08:16:06.958Z,41.69
2022-08-11T08:21:14.618Z,42.47
2022-08-11T08:26:39.925Z,42.77
2022-08-11T08:31:48.445Z,42.83
2022-08-11T08:36:55.060Z,42.77
2022-08-11T08:42:02.894Z,41.91
2022-08-11T08:47:10.787Z,41.40
2022-08-11T08:52:29.439Z,41.28
2022-08-11T08:57:41.650Z,40.31
2022-08-11T09:02:48.622Z,40.46
2022-08-11T09:07:58.099Z,40.67
2022-08-11T09:13:06.645Z,39.85
2022-08-11T09:18:13.944Z,38.33
2022-08-11T09:24:11.265Z,37.69
2022-08-11T09:29:04.677Z,36.90
2022-08-11T09:34:11.905Z,38.07
2022-08-11T09:39:37.965Z,38.23
2022-08-11T09:44:51.086Z,38.12
2022-08-11T09:50:00.675Z,37.68
2022-08-11T09:55:12.066Z,37.88
2022-08-11T10:00:18.705Z,37.47
2022-08-11T10:05:44.813Z,36.93
2022-08-11T10:10:51.181Z,37.03
2022-08-11T10:16:15.710Z,36.24
2022-08-11T10:21:30.397Z,36.06
2022-08-11T10:26:55.277Z,34.25
2022-08-11T10:32:21.778Z,32.32
2022-08-11T10:38:08.357Z,33.11
2022-08-11T10:43:07.534Z,33.63
2022-08-11T10:48:15.654Z,32.49
2022-08-11T10:53:42.301Z,30.61
2022-08-11T10:58:51.994Z,29.70
2022-08-11T11:03:58.986Z,29.10
2022-08-11T11:09:08.676Z,30.42
2022-08-11T11:14:45.793Z,31.85
2022-08-11T11:19:57.796Z,30.91
2022-08-11T11:25:16.756Z,29.58
2022-08-11T11:30:28.019Z,30.15
2022-08-11T11:35:40.517Z,30.82
2022-08-11T11:41:07.403Z,31.28
2022-08-11T11:46:14.091Z,31.75
2022-08-11T11:51:20.661Z,31.58
2022-08-11T11:56:27.461Z,31.11
2022-08-11T12:01:37.752Z,31.32
2022-08-11T12:06:45.238Z,31.27
2022-08-11T12:12:10.402Z,30.91
2022-08-11T12:17:16.322Z,30.52
2022-08-11T12:22:41.099Z,30.17
2022-08-11T12:27:47.138Z,30.18
2022-08-11T12:32:53.888Z,30.56
2022-08-11T12:38:09.877Z,30.56
2022-08-11T12:43:39.560Z,30.67
2022-08-11T12:49:06.713Z,30.89
2022-08-11T12:54:25.305Z,30.71
2022-08-11T12:59:51.467Z,29.68
2022-08-11T13:04:59.409Z,29.13
2022-08-11T13:10:11.222Z,29.11
2022-08-11T13:15:25.657Z,29.01
2022-08-11T13:20:32.232Z,28.67
2022-08-11T13:25:40.592Z,28.52
2022-08-11T13:31:06.175Z,28.83
2022-08-11T13:36:15.887Z,29.39
2022-08-11T13:41:39.147Z,29.40
2022-08-11T13:46:46.309Z,29.03
2022-08-11T13:51:56.838Z,28.82
2022-08-11T13:57:08.260Z,29.25
2022-08-11T14:02:28.261Z,29.71
2022-08-11T14:07:39.287Z,29.51
2022-08-11T14:13:12.958Z,28.91
2022-08-11T14:18:23.666Z,28.45
2022-08-11T14:23:35.568Z,28.07
2022-08-11T14:28:45.061Z,27.77
2022-08-11T14:34:00.346Z,27.63
2022-08-11T14:39:12.941Z,27.61
2022-08-11T14:44:41.661Z,27.32
2022-08-11T14:49:58.042Z,26.95
2022-08-11T14:55:36.111Z,26.47
2022-08-11T15:00:43.725Z,26.11
2022-08-11T15:05:57.534Z,25.85
2022-08-11T15:11:24.514Z,25.69
2022-08-11T15:16:50.142Z,25.53
2022-08-11T15:22:14.932Z,25.50
2022-08-11T15:27:41.498Z,25.49
2022-08-11T15:33:10.251Z,25.40
2022-08-11T15:38:20.194Z,25.38
2022-08-11T15:43:48.420Z,25.36
2022-08-11T15:49:01.467Z,25.31
2022-08-11T15:54:11.469Z,25.26
2022-08-11T15:59:41.535Z,25.21
2022-08-11T16:04:50.179Z,25.13
2022-08-11T16:10:00.575Z,25.00
2022-08-11T16:15:28.748Z,24.95
2022-08-11T16:20:35.682Z,24.90
2022-08-11T16:27:02.995Z,24.80
2022-08-11T16:31:11.849Z,24.66
2022-08-11T16:36:37.626Z,24.56
2022-08-11T16:42:03.850Z,24.46
2022-08-11T16:47:13.098Z,24.33
2022-08-11T16:52:19.650Z,24.17
2022-08-11T16:57:46.370Z,23.97
2022-08-11T17:03:12.926Z,23.76
2022-08-11T17:08:45.209Z,23.54
2022-08-11T17:14:10.075Z,23.33
2022-08-11T17:20:40.582Z,23.13
2022-08-11T17:24:51.362Z,22.96
2022-08-11T17:30:01.373Z,22.81
2022-08-11T17:35:30.253Z,22.63
2022-08-11T17:40:39.082Z,22.48
2022-08-11T17:46:08.115Z,22.33
2022-08-11T17:51:39.824Z,22.12
2022-08-11T17:57:05.481Z,21.94
2022-08-11T18:02:42.394Z,21.83
2022-08-11T18:08:11.980Z,21.74
2022-08-11T18:13:38.786Z,21.77
2022-08-11T18:19:03.965Z,21.79
2022-08-11T18:24:33.071Z,21.74
2022-08-11T18:30:01.848Z,21.57
2022-08-11T18:35:31.370Z,21.38
2022-08-11T18:40:56.884Z,21.20
2022-08-11T18:46:25.291Z,21.07
2022-08-11T18:51:50.343Z,20.98
2022-08-11T18:57:19.449Z,20.85
2022-08-11T19:02:49.518Z,20.72
2022-08-11T19:08:17.447Z,20.70
2022-08-11T19:13:44.598Z,20.59
2022-08-11T19:19:12.027Z,20.55
2022-08-11T19:24:38.235Z,20.50
2022-08-11T19:30:13.250Z,20.52
2022-08-11T19:35:39.480Z,20.43
2022-08-11T19:41:05.179Z,20.36
2022-08-11T19:46:30.792Z,20.31
2022-08-11T19:51:56.961Z,20.28
2022-08-11T19:57:24.554Z,20.12
2022-08-11T20:02:48.990Z,19.98
2022-08-11T20:08:16.264Z,19.87
2022-08-11T20:13:46.379Z,19.74
2022-08-11T20:19:16.833Z,19.59
2022-08-11T20:24:42.398Z,19.41
2022-08-11T20:30:08.491Z,19.18
2022-08-11T20:35:33.342Z,18.91
2022-08-11T20:40:59.658Z,18.72
2022-08-11T20:46:26.147Z,18.66
2022-08-11T20:51:50.571Z,18.67
2022-08-11T20:57:18.971Z,18.67
2022-08-11T21:02:46.075Z,18.74
2022-08-11T21:08:14.911Z,18.80
2022-08-11T21:13:42.099Z,18.86
2022-08-11T21:19:08.761Z,18.95
2022-08-11T21:24:37.494Z,19.05
2022-08-11T21:30:09.543Z,19.13
2022-08-11T21:35:36.609Z,19.16
2022-08-11T21:41:12.297Z,19.17
2022-08-11T21:46:41.209Z,19.14
2022-08-11T21:52:05.697Z,19.15
2022-08-11T21:57:34.056Z,19.20
2022-08-11T22:03:00.393Z,19.24
2022-08-11T22:08:25.401Z,19.23
2022-08-11T22:14:06.096Z,19.21
2022-08-11T22:19:34.725Z,19.19
2022-08-11T22:24:59.856Z,19.22
2022-08-11T22:30:26.631Z,19.28
2022-08-11T22:35:53.181Z,19.30
2022-08-11T22:41:18.126Z,19.23
2022-08-11T22:46:43.908Z,19.21
2022-08-11T22:52:11.210Z,19.23
2022-08-11T22:57:36.521Z,19.31
2022-08-11T23:03:01.439Z,19.35
2022-08-11T23:08:27.685Z,19.34
2022-08-11T23:13:53.561Z,19.32
2022-08-11T23:20:07.551Z,19.30
2022-08-11T23:25:03.623Z,19.26
2022-08-11T23:30:30.137Z,19.27
2022-08-11T23:35:59.597Z,19.27
2022-08-11T23:41:28.871Z,19.26
2022-08-11T23:46:54.074Z,19.18
2022-08-11T23:52:19.482Z,19.13
2022-08-11T23:57:49.219Z,19.10
